Time;durP1;ratioP1;P1;durP2;ratioP2;P2;SDS_P1;SDS_P2;PMS_P1;PMS_P2;Temp;Humidity;BMP_temperature;BMP_pressure;BME280_temperature;BME280_humidity;BME280_pressure;Samples;Min_cycle;Max_cycle;Signal;HPM_P1;HPM_P2
2022/10/25 00:00:11;;;;;;;2.27;2.07;;;;;;;13.76;86.93;100928.66;6224721;28;20225;-71
2022/10/25 00:03:34;;;;;;;3.13;2.30;;;;;;;13.73;87.87;100925.38;6217929;28;20224;-71
2022/10/25 00:06:55;;;;;;;4.03;2.03;;;;;;;13.70;88.02;100939.25;6222530;28;20231;-70
2022/10/25 00:10:15;;;;;;;4.03;1.50;;;;;;;13.69;88.35;100932.97;6230144;28;20223;-71
2022/10/25 00:13:36;;;;;;;3.10;1.80;;;;;;;13.68;88.24;100936.72;6226048;28;20664;-71
2022/10/25 00:16:59;;;;;;;2.47;1.90;;;;;;;13.63;88.72;100933.59;6220131;28;20227;-71
2022/10/25 00:20:19;;;;;;;7.53;2.70;;;;;;;13.60;88.73;100937.47;6228353;28;20228;-71
2022/10/25 00:23:41;;;;;;;3.07;2.07;;;;;;;13.58;89.31;100934.06;6229483;28;20427;-70
2022/10/25 00:27:02;;;;;;;4.27;1.40;;;;;;;13.62;88.80;100935.44;6224847;28;20516;-71
2022/10/25 00:30:23;;;;;;;3.13;1.93;;;;;;;13.60;89.15;100940.16;6232864;28;20240;-70
2022/10/25 00:33:45;;;;;;;5.73;1.73;;;;;;;13.58;89.35;100935.91;6233702;28;20265;-71
2022/10/25 00:37:07;;;;;;;7.17;2.77;;;;;;;13.56;89.42;100932.50;6228531;28;20232;-71
2022/10/25 00:40:28;;;;;;;5.90;1.87;;;;;;;13.57;89.31;100935.06;6221040;28;20228;-71
2022/10/25 00:43:51;;;;;;;5.07;2.33;;;;;;;13.54;89.55;100929.09;6230103;28;20326;-70
2022/10/25 00:47:17;;;;;;;1.90;1.70;;;;;;;13.63;89.09;100933.59;6232766;28;20232;-70
2022/10/25 00:50:47;;;;;;;2.93;2.17;;;;;;;13.56;89.55;100938.78;6216760;28;20232;-69
2022/10/25 00:54:13;;;;;;;4.77;2.03;;;;;;;13.53;89.61;100935.53;6192998;28;20335;-68
2022/10/25 00:57:40;;;;;;;2.07;1.87;;;;;;;13.56;89.65;100935.19;6227208;28;20231;-69
2022/10/25 01:01:03;;;;;;;2.33;1.90;;;;;;;13.66;89.18;100935.16;6217946;28;20314;-68
2022/10/25 01:04:27;;;;;;;1.67;1.40;;;;;;;13.62;89.17;100943.56;6239075;28;20228;-68
2022/10/25 01:07:51;;;;;;;1.57;1.47;;;;;;;13.64;89.05;100938.84;6221740;28;20244;-69
2022/10/25 01:11:12;;;;;;;4.57;1.60;;;;;;;13.71;88.71;100935.53;6212849;28;20223;-70
2022/10/25 01:14:36;;;;;;;6.30;2.37;;;;;;;13.70;88.63;100944.66;6237719;28;20220;-73
2022/10/25 01:18:06;;;;;;;5.27;2.10;;;;;;;13.71;88.09;100954.47;6221381;28;20619;-68
2022/10/25 01:21:44;;;;;;;1.37;1.27;;;;;;;13.73;87.96;100938.94;6226814;28;20227;-70
2022/10/25 01:25:38;;;;;;;1.40;1.30;;;;;;;13.77;87.60;100948.47;6237609;28;20240;-70
2022/10/25 01:29:25;;;;;;;3.03;2.73;;;;;;;13.81;87.20;100953.41;6221728;28;20231;-70
2022/10/25 01:33:17;;;;;;;4.50;1.33;;;;;;;13.77;87.50;100943.06;6227267;28;20255;-70
2022/10/25 01:36:45;;;;;;;3.50;1.50;;;;;;;13.80;87.27;100945.44;6225560;28;20236;-70
2022/10/25 01:40:12;;;;;;;4.17;1.97;;;;;;;13.83;87.30;100950.56;6224090;28;20318;-71
2022/10/25 01:43:41;;;;;;;4.63;1.90;;;;;;;13.81;87.60;100945.28;6242339;28;20236;-71
2022/10/25 01:47:04;;;;;;;2.40;2.00;;;;;;;13.87;87.57;100950.06;6227372;28;20228;-67
2022/10/25 01:50:29;;;;;;;1.63;1.33;;;;;;;13.86;87.51;100950.22;6225243;28;20321;-68
2022/10/25 01:53:52;;;;;;;1.97;1.60;;;;;;;13.86;87.62;100947.53;6224749;28;20260;-69
2022/10/25 01:57:31;;;;;;;2.97;2.23;;;;;;;13.85;87.89;100952.09;6222789;28;20236;-71
2022/10/25 02:01:02;;;;;;;6.50;1.67;;;;;;;13.85;87.85;100946.66;6211996;28;20231;-70
2022/10/25 02:04:38;;;;;;;5.00;1.60;;;;;;;13.84;88.16;100944.97;6239454;28;20225;-70
2022/10/25 02:08:05;;;;;;;7.27;2.40;;;;;;;13.86;87.97;100951.09;6229340;28;21069;-73
2022/10/25 02:11:29;;;;;;;5.07;1.87;;;;;;;13.87;88.59;100932.97;6222815;28;20227;-70
2022/10/25 02:14:57;;;;;;;3.73;2.33;;;;;;;13.79;88.58;100939.16;6226920;28;20221;-74
2022/10/25 02:18:23;;;;;;;4.63;2.23;;;;;;;13.79;88.56;100944.59;6233923;28;20232;-70
2022/10/25 02:21:47;;;;;;;4.70;2.23;;;;;;;13.78;88.75;100948.31;6222108;28;20232;-70
2022/10/25 02:25:11;;;;;;;6.70;1.97;;;;;;;13.71;89.16;100949.94;6230884;28;20224;-70
2022/10/25 02:28:34;;;;;;;6.90;2.63;;;;;;;13.69;89.39;100957.34;6218346;28;20343;-71
2022/10/25 02:31:55;;;;;;;2.70;2.00;;;;;;;13.69;89.46;100957.34;6219918;28;20223;-71
2022/10/25 02:35:18;;;;;;;5.37;3.43;;;;;;;13.77;89.42;100959.31;6227182;28;20272;-72
2022/10/25 02:38:40;;;;;;;3.90;2.27;;;;;;;13.82;88.96;100960.53;6229730;28;20523;-71
2022/10/25 02:42:03;;;;;;;9.17;2.53;;;;;;;13.78;89.08;100959.16;6228605;28;20327;-68
2022/10/25 02:45:24;;;;;;;3.60;2.73;;;;;;;13.77;89.25;100967.44;6227959;28;20229;-71
2022/10/25 02:48:44;;;;;;;6.47;2.73;;;;;;;13.82;89.16;100965.97;6229964;28;20575;-71
2022/10/25 02:52:05;;;;;;;3.23;2.17;;;;;;;13.76;89.28;100971.16;6231680;28;20231;-71
2022/10/25 02:55:26;;;;;;;5.17;2.93;;;;;;;13.73;89.32;100966.88;6226030;28;20220;-70
2022/10/25 02:58:50;;;;;;;7.03;3.70;;;;;;;13.70;89.75;100972.63;6219527;28;20768;-69
2022/10/25 03:02:11;;;;;;;4.47;2.90;;;;;;;13.74;89.36;100975.88;6227113;28;20227;-72
2022/10/25 03:05:32;;;;;;;7.37;2.83;;;;;;;13.73;89.05;100980.44;6221035;28;20236;-72
2022/10/25 03:08:53;;;;;;;3.03;2.73;;;;;;;13.74;89.06;100989.41;6239153;28;20740;-70
2022/10/25 03:12:13;;;;;;;12.93;3.20;;;;;;;13.72;88.72;100983.31;6224240;28;20842;-71
2022/10/25 03:15:35;;;;;;;2.50;2.23;;;;;;;13.72;88.65;100975.16;6213252;28;20237;-70
2022/10/25 03:18:57;;;;;;;5.40;3.67;;;;;;;13.67;88.70;100978.34;6237058;28;20236;-72
2022/10/25 03:22:18;;;;;;;6.00;5.17;;;;;;;13.74;87.68;100984.84;6225159;28;20778;-72
2022/10/25 03:25:39;;;;;;;3.60;2.70;;;;;;;13.74;87.58;100995.69;6225318;28;20252;-72
2022/10/25 03:29:00;;;;;;;5.17;3.37;;;;;;;13.77;87.51;101010.78;6224937;28;20237;-70
2022/10/25 03:32:23;;;;;;;3.93;2.83;;;;;;;13.78;87.65;101002.50;6224765;28;20240;-72
2022/10/25 03:35:44;;;;;;;3.67;3.33;;;;;;;13.80;87.86;100999.63;6222294;28;20316;-69
2022/10/25 03:39:05;;;;;;;4.27;2.97;;;;;;;13.78;88.01;101004.34;6224246;28;20824;-69
2022/10/25 03:42:26;;;;;;;4.80;3.33;;;;;;;13.86;87.42;101005.28;6229815;28;20232;-70
2022/10/25 03:45:47;;;;;;;4.60;4.10;;;;;;;13.84;86.97;100995.59;6223350;28;20225;-71
2022/10/25 03:49:09;;;;;;;10.13;3.20;;;;;;;13.85;86.07;101006.28;6220744;28;20541;-71
2022/10/25 03:52:30;;;;;;;4.57;2.97;;;;;;;13.89;85.85;101006.84;6225039;28;20500;-72
2022/10/25 03:55:50;;;;;;;4.33;2.93;;;;;;;13.86;85.81;101013.44;6216208;28;20836;-71
2022/10/25 03:59:11;;;;;;;8.37;3.50;;;;;;;13.90;85.83;101013.97;6220911;28;20228;-71
2022/10/25 04:02:32;;;;;;;3.50;3.00;;;;;;;13.86;85.78;101018.84;6221478;28;20228;-70
2022/10/25 04:05:54;;;;;;;7.60;3.17;;;;;;;13.91;85.41;101024.66;6210454;28;20583;-71
2022/10/25 04:09:15;;;;;;;6.40;3.87;;;;;;;13.93;85.53;101021.78;6232591;28;20249;-72
2022/10/25 04:12:36;;;;;;;5.63;4.00;;;;;;;13.93;85.51;101027.22;6221443;28;20704;-71
2022/10/25 04:15:56;;;;;;;3.97;2.73;;;;;;;13.89;85.39;101020.41;6216044;28;20237;-69
2022/10/25 04:19:17;;;;;;;3.80;3.43;;;;;;;13.89;85.53;101014.97;6222817;28;20232;-69
2022/10/25 04:22:39;;;;;;;4.07;3.33;;;;;;;13.89;85.22;101020.41;6222239;28;20691;-70
2022/10/25 04:26:00;;;;;;;4.00;3.43;;;;;;;13.86;85.21;101023.41;6222775;28;20224;-70
2022/10/25 04:29:21;;;;;;;6.43;3.23;;;;;;;13.89;85.11;101023.97;6226633;28;20244;-71
2022/10/25 04:32:42;;;;;;;5.13;4.17;;;;;;;13.90;84.57;101028.38;6225242;28;20303;-70
2022/10/25 04:36:03;;;;;;;7.40;4.23;;;;;;;13.89;84.46;101037.53;6219525;28;20245;-70
2022/10/25 04:39:25;;;;;;;6.63;3.57;;;;;;;13.88;84.60;101027.69;6221806;28;20224;-72
2022/10/25 04:42:46;;;;;;;6.70;4.07;;;;;;;13.88;84.27;101035.81;6217795;28;20594;-71
2022/10/25 04:46:07;;;;;;;5.90;3.57;;;;;;;13.81;84.58;101023.84;6223111;28;20485;-72
2022/10/25 04:49:28;;;;;;;5.93;3.77;;;;;;;13.84;84.42;101022.72;6220318;28;20224;-69
2022/10/25 04:52:49;;;;;;;7.80;2.83;;;;;;;13.86;84.35;101024.28;6225541;28;20224;-69
2022/10/25 04:56:13;;;;;;;5.80;3.33;;;;;;;13.79;84.52;101028.59;6230970;28;20233;-71
2022/10/25 04:59:33;;;;;;;6.80;3.33;;;;;;;13.75;84.66;101042.63;6229162;28;20403;-71
2022/10/25 05:02:55;;;;;;;6.17;5.57;;;;;;;13.74;84.78;101044.47;6217167;28;20312;-72
2022/10/25 05:06:17;;;;;;;4.93;3.93;;;;;;;13.69;85.08;101041.34;6216985;28;20327;-70
2022/10/25 05:09:38;;;;;;;9.80;4.30;;;;;;;13.72;84.92;101042.91;6211942;28;20240;-70
2022/10/25 05:13:01;;;;;;;6.77;4.10;;;;;;;13.72;85.05;101042.91;6215823;28;20225;-71
2022/10/25 05:16:24;;;;;;;5.57;4.80;;;;;;;13.73;84.90;101041.88;6212167;28;20229;-71
2022/10/25 05:19:45;;;;;;;7.40;4.20;;;;;;;13.67;85.20;101040.66;6230379;28;20256;-70
2022/10/25 05:23:06;;;;;;;6.73;3.87;;;;;;;13.63;85.57;101041.97;6231525;28;20228;-71
2022/10/25 05:26:26;;;;;;;6.37;3.53;;;;;;;13.58;85.66;101052.38;6226327;28;20232;-71
2022/10/25 05:29:49;;;;;;;4.63;3.50;;;;;;;13.55;86.00;101050.84;6232716;28;20240;-70
2022/10/25 05:33:10;;;;;;;8.43;3.23;;;;;;;13.54;86.05;101045.56;6234167;28;20599;-70
2022/10/25 05:36:32;;;;;;;4.27;3.13;;;;;;;13.53;86.36;101044.72;6235699;28;20221;-69
2022/10/25 05:39:53;;;;;;;5.50;3.03;;;;;;;13.57;86.15;101051.56;6228158;28;20503;-69
2022/10/25 05:43:14;;;;;;;11.33;3.73;;;;;;;13.62;86.06;101056.53;6239318;28;20684;-69
2022/10/25 05:46:36;;;;;;;4.07;3.67;;;;;;;13.63;86.25;101067.19;6230239;28;20233;-69
2022/10/25 05:49:57;;;;;;;4.60;3.67;;;;;;;13.60;86.49;101069.38;6225677;28;20244;-70
2022/10/25 05:53:18;;;;;;;3.53;3.23;;;;;;;13.62;86.44;101065.47;6231560;28;20232;-70
2022/10/25 05:56:40;;;;;;;7.57;3.77;;;;;;;13.62;86.60;101080.91;6225115;28;20233;-69
2022/10/25 06:00:01;;;;;;;4.17;3.37;;;;;;;13.66;86.42;101076.03;6228899;28;21780;-71
2022/10/25 06:03:27;;;;;;;4.33;3.70;;;;;;;13.66;86.54;101078.75;6230759;28;20542;-71
2022/10/25 06:06:50;;;;;;;5.60;3.33;;;;;;;13.70;86.17;101074.72;6215817;28;20229;-72
2022/10/25 06:10:11;;;;;;;8.53;4.23;;;;;;;13.71;86.34;101082.69;6224904;28;20237;-69
2022/10/25 06:13:33;;;;;;;6.63;3.27;;;;;;;13.73;86.31;101091.53;6210382;28;20689;-70
2022/10/25 06:16:54;;;;;;;5.03;3.27;;;;;;;13.77;86.32;101086.66;6220047;28;20239;-69
2022/10/25 06:20:16;;;;;;;6.40;4.33;;;;;;;13.76;86.70;101091.22;6218705;28;20241;-70
2022/10/25 06:23:37;;;;;;;10.07;4.43;;;;;;;13.77;86.71;101092.91;6230383;28;20249;-69
2022/10/25 06:26:58;;;;;;;7.83;3.77;;;;;;;13.82;86.76;101093.34;6227046;28;20311;-69
2022/10/25 06:30:19;;;;;;;6.13;3.83;;;;;;;13.81;87.01;101098.91;6222568;28;20224;-70
2022/10/25 06:33:40;;;;;;;6.60;5.10;;;;;;;13.79;87.80;101114.47;6228938;28;20229;-71
2022/10/25 06:37:03;;;;;;;6.80;3.93;;;;;;;13.75;88.10;101107.66;6224911;28;20229;-72
2022/10/25 06:40:24;;;;;;;7.13;4.80;;;;;;;13.71;88.66;101107.06;6217202;28;21124;-72
2022/10/25 06:43:45;;;;;;;3.40;2.67;;;;;;;13.71;89.04;101111.63;6222073;28;20327;-70
2022/10/25 06:47:07;;;;;;;6.13;5.37;;;;;;;13.75;89.03;101113.06;6226124;28;20237;-71
2022/10/25 06:50:27;;;;;;;8.03;4.23;;;;;;;13.77;89.10;101122.72;6229215;28;20233;-69
2022/10/25 06:53:54;;;;;;;8.30;4.40;;;;;;;13.79;89.32;101138.84;6227441;28;20237;-70
2022/10/25 06:57:16;;;;;;;7.67;4.97;;;;;;;13.84;89.27;101126.56;6226630;28;20231;-69
2022/10/25 07:00:36;;;;;;;9.57;4.90;;;;;;;13.85;88.96;101136.38;6217997;28;20228;-70
2022/10/25 07:03:58;;;;;;;6.37;3.67;;;;;;;13.91;88.90;101135.78;6231372;28;20252;-71
2022/10/25 07:07:19;;;;;;;7.07;4.73;;;;;;;13.85;89.43;101152.63;6222739;28;20236;-69
2022/10/25 07:10:41;;;;;;;7.60;5.33;;;;;;;13.91;89.30;101146.63;6218505;28;20959;-69
2022/10/25 07:14:03;;;;;;;6.30;4.10;;;;;;;13.92;89.38;101155.59;6237613;28;20236;-69
2022/10/25 07:17:23;;;;;;;8.77;4.23;;;;;;;13.94;89.25;101162.59;6229889;28;20607;-73
2022/10/25 07:20:47;;;;;;;6.93;5.27;;;;;;;14.03;89.60;101156.25;6219226;28;20224;-71
2022/10/25 07:24:10;;;;;;;8.40;5.43;;;;;;;14.13;89.02;101150.78;6235162;28;20646;-71
2022/10/25 07:27:32;;;;;;;8.60;5.07;;;;;;;14.22;88.60;101153.44;6221404;28;20247;-71
2022/10/25 07:30:54;;;;;;;8.00;6.20;;;;;;;14.17;88.71;101163.00;6218811;28;20237;-73
2022/10/25 07:34:15;;;;;;;5.83;4.90;;;;;;;14.19;88.88;101161.88;6237064;28;20243;-72
2022/10/25 07:37:36;;;;;;;8.67;4.27;;;;;;;14.24;88.63;101162.28;6237470;28;20227;-73
2022/10/25 07:40:57;;;;;;;6.87;6.00;;;;;;;14.32;88.41;101175.94;6213306;28;20617;-72
2022/10/25 07:44:20;;;;;;;8.67;4.83;;;;;;;14.39;88.49;101174.31;6241544;28;20236;-72
2022/10/25 07:47:40;;;;;;;8.67;6.17;;;;;;;14.50;87.90;101173.25;6225483;28;20239;-71
2022/10/25 07:51:05;;;;;;;6.03;4.47;;;;;;;14.47;87.65;101176.28;6223542;28;20685;-72
2022/10/25 07:54:26;;;;;;;8.50;3.93;;;;;;;14.53;87.23;101180.22;6242887;28;20511;-71
2022/10/25 07:57:46;;;;;;;8.33;5.00;;;;;;;14.34;87.99;101211.06;6233844;28;20228;-71
2022/10/25 08:01:10;;;;;;;6.53;5.10;;;;;;;14.38;88.11;101193.47;6230726;28;20501;-71
2022/10/25 08:04:31;;;;;;;7.30;5.10;;;;;;;14.41;88.20;101198.59;6238490;28;20225;-72
2022/10/25 08:07:52;;;;;;;6.40;5.63;;;;;;;14.46;87.95;101211.72;6238431;28;20586;-72
2022/10/25 08:11:13;;;;;;;9.10;5.40;;;;;;;14.45;87.81;101199.13;6219216;28;20236;-70
2022/10/25 08:14:34;;;;;;;5.33;3.90;;;;;;;14.56;88.27;101198.91;6236613;28;20236;-71
2022/10/25 08:18:00;;;;;;;7.80;4.17;;;;;;;14.49;87.74;101208.66;6231422;28;20224;-72
2022/10/25 08:21:21;;;;;;;7.27;5.07;;;;;;;14.56;87.91;101209.78;6222357;28;20232;-71
2022/10/25 08:24:42;;;;;;;8.07;4.60;;;;;;;14.49;87.29;101212.25;6232454;28;20232;-69
2022/10/25 08:28:03;;;;;;;6.80;4.03;;;;;;;14.58;87.55;101222.16;6229812;28;21850;-71
2022/10/25 08:31:24;;;;;;;9.43;5.67;;;;;;;14.67;87.42;101212.25;6230510;28;20566;-71
2022/10/25 08:34:47;;;;;;;5.20;4.73;;;;;;;14.66;86.56;101215.97;6233080;28;20228;-71
2022/10/25 08:38:08;;;;;;;9.37;5.20;;;;;;;14.61;87.24;101229.16;6231450;28;20551;-71
2022/10/25 08:41:41;;;;;;;5.80;4.63;;;;;;;14.73;86.26;101236.91;6235162;28;20489;-72
2022/10/25 08:45:13;;;;;;;6.13;4.17;;;;;;;14.72;85.99;101234.34;6228579;28;20228;-70
2022/10/25 08:48:41;;;;;;;8.67;5.53;;;;;;;14.90;85.58;101235.22;6224153;28;20685;-71
2022/10/25 08:52:06;;;;;;;5.70;4.13;;;;;;;14.85;85.28;101243.81;6226730;28;20563;-72
2022/10/25 08:55:32;;;;;;;5.63;4.53;;;;;;;14.75;85.39;101248.47;6234200;28;20528;-70
2022/10/25 08:58:56;;;;;;;5.00;4.07;;;;;;;14.72;85.74;101256.06;6232671;28;20554;-70
2022/10/25 09:02:23;;;;;;;4.17;3.53;;;;;;;14.73;85.33;101260.47;6234680;28;20232;-72
2022/10/25 09:05:51;;;;;;;5.83;3.67;;;;;;;14.77;84.45;101267.34;6236357;28;20684;-70
2022/10/25 09:09:24;;;;;;;5.20;4.03;;;;;;;14.84;84.58;101269.25;6238575;28;20274;-72
2022/10/25 09:12:51;;;;;;;10.43;4.03;;;;;;;14.85;84.40;101267.41;6230398;28;20550;-71
2022/10/25 09:16:16;;;;;;;8.77;3.43;;;;;;;14.80;84.76;101272.44;6232673;28;20247;-70
2022/10/25 09:19:45;;;;;;;5.03;3.50;;;;;;;14.83;84.11;101277.56;6233231;28;20232;-71
2022/10/25 09:23:18;;;;;;;10.63;5.07;;;;;;;14.74;84.59;101275.78;6227968;28;20313;-72
2022/10/25 09:26:44;;;;;;;9.03;5.87;;;;;;;14.75;84.63;101264.75;6223438;28;20813;-72
2022/10/25 09:30:08;;;;;;;4.13;3.20;;;;;;;15.33;81.81;101283.31;6235823;28;20315;-70
2022/10/25 09:33:33;;;;;;;3.67;3.03;;;;;;;15.09;82.98;101279.38;6237154;28;20224;-70
2022/10/25 09:37:02;;;;;;;11.07;6.03;;;;;;;15.29;81.44;101277.31;6210275;28;20224;-73
2022/10/25 09:40:25;;;;;;;3.83;2.97;;;;;;;15.16;82.08;101285.03;6234266;28;20661;-69
2022/10/25 09:43:53;;;;;;;4.00;3.13;;;;;;;18.18;73.02;101280.13;6234631;28;20225;-70
2022/10/25 09:47:21;;;;;;;5.00;2.30;;;;;;;17.39;72.38;101288.22;6240980;28;20224;-69
2022/10/25 09:50:48;;;;;;;7.37;3.63;;;;;;;17.23;72.95;101295.53;6239523;28;20323;-72
2022/10/25 09:54:15;;;;;;;6.07;2.60;;;;;;;16.68;74.56;101295.22;6232616;28;20240;-72
2022/10/25 09:57:36;;;;;;;9.00;2.70;;;;;;;16.90;73.84;101299.22;6237875;28;20817;-72
2022/10/25 10:01:01;;;;;;;4.43;2.40;;;;;;;18.21;68.12;101301.56;6231672;28;20690;-72
2022/10/25 10:04:27;;;;;;;4.47;2.38;;;;;;;19.73;63.67;101292.69;6231608;28;20252;-69
2022/10/25 10:07:49;;;;;;;2.28;2.05;;;;;;;20.41;60.83;101285.13;6235983;28;20637;-71
2022/10/25 10:11:16;;;;;;;5.32;2.72;;;;;;;18.94;65.65;101301.31;6233679;28;20521;-70
2022/10/25 10:14:44;;;;;;;2.40;2.10;;;;;;;20.02;62.59;101292.75;6232522;28;20233;-70
2022/10/25 10:18:27;;;;;;;4.35;2.70;;;;;;;21.79;56.80;101297.66;6237400;28;20228;-72
2022/10/25 10:21:51;;;;;;;4.63;1.95;;;;;;;19.92;61.43;101305.84;6231197;28;20244;-71
2022/10/25 10:25:16;;;;;;;4.50;3.10;;;;;;;19.52;62.87;101306.22;6238791;28;20240;-71
2022/10/25 10:28:37;;;;;;;5.50;2.10;;;;;;;19.06;63.63;101314.38;6243677;28;20231;-72
2022/10/25 10:32:00;;;;;;;1.88;1.60;;;;;;;21.05;57.74;101310.84;6232498;28;20233;-72
2022/10/25 10:35:31;;;;;;;3.13;2.33;;;;;;;21.16;57.04;101314.97;6235542;28;20331;-71
2022/10/25 10:38:53;;;;;;;3.88;2.85;;;;;;;20.36;58.85;101309.50;6235030;28;20646;-71
2022/10/25 10:42:16;;;;;;;7.00;1.85;;;;;;;18.09;65.79;101326.69;6234628;28;20232;-71
2022/10/25 10:45:37;;;;;;;2.22;1.92;;;;;;;18.17;66.91;101323.94;6233934;28;20224;-72
2022/10/25 10:49:00;;;;;;;3.63;2.03;;;;;;;17.38;68.90;101323.78;6235595;28;20330;-72
2022/10/25 10:52:30;;;;;;;2.80;2.60;;;;;;;16.78;71.08;101320.44;6234751;28;20244;-71
2022/10/25 10:55:53;;;;;;;6.93;4.30;;;;;;;16.93;71.24;101323.38;6236135;28;20640;-70
2022/10/25 10:59:27;;;;;;;1.67;1.58;;;;;;;19.62;63.95;101312.28;6233838;28;20228;-71
2022/10/25 11:02:48;;;;;;;7.90;2.65;;;;;;;22.25;53.67;101296.97;6232254;28;20602;-70
2022/10/25 11:06:13;;;;;;;2.95;2.38;;;;;;;22.39;52.19;101311.63;6232411;28;20251;-71
2022/10/25 11:09:35;;;;;;;1.75;1.63;;;;;;;21.37;54.80;101318.59;6225387;28;20240;-72
2022/10/25 11:13:15;;;;;;;2.72;1.70;;;;;;;23.97;48.07;101324.00;6233136;28;20237;-72
2022/10/25 11:16:50;;;;;;;2.45;2.15;;;;;;;22.52;50.46;101333.69;6227724;28;20232;-72
2022/10/25 11:20:25;;;;;;;9.02;1.95;;;;;;;21.10;54.48;101354.13;6235431;28;20236;-71
2022/10/25 11:23:58;;;;;;;2.47;1.75;;;;;;;19.50;59.08;101349.31;6233625;28;20236;-71
2022/10/25 11:27:30;;;;;;;3.53;1.48;;;;;;;23.09;49.13;101341.63;6235520;28;20246;-70
2022/10/25 11:31:01;;;;;;;7.88;1.67;;;;;;;20.17;55.93;101351.09;6222969;28;20255;-71
2022/10/25 11:34:31;;;;;;;1.80;1.15;;;;;;;19.08;60.40;101368.88;6231512;28;20236;-72
2022/10/25 11:38:01;;;;;;;6.85;1.98;;;;;;;18.29;63.17;101367.06;6233475;28;20849;-72
2022/10/25 11:41:31;;;;;;;2.25;1.45;;;;;;;17.73;65.50;101375.31;6231895;28;20469;-73
2022/10/25 11:45:21;;;;;;;2.13;1.95;;;;;;;21.69;51.50;101374.00;6235360;28;20263;-70
2022/10/25 11:48:58;;;;;;;3.90;1.40;;;;;;;24.82;43.36;101357.84;6231540;28;20693;-72
2022/10/25 11:52:46;;;;;;;7.78;2.20;;;;;;;23.24;46.43;101357.97;6227915;28;20232;-73
2022/10/25 11:56:15;;;;;;;5.03;1.30;;;;;;;22.81;46.43;101363.72;6223102;28;20327;-71
2022/10/25 11:59:50;;;;;;;2.17;1.00;;;;;;;25.13;41.49;101352.41;6237466;28;20247;-73
2022/10/25 12:03:25;;;;;;;1.75;1.10;;;;;;;22.46;47.27;101364.75;6234949;28;20224;-72
2022/10/25 12:06:52;;;;;;;3.67;1.25;;;;;;;22.58;46.42;101370.50;6236546;28;20232;-72
2022/10/25 12:10:32;;;;;;;4.13;1.63;;;;;;;23.46;44.92;101368.66;6229925;28;20256;-71
2022/10/25 12:13:57;;;;;;;6.50;2.40;;;;;;;21.61;49.80;101361.25;6236465;28;20228;-72
2022/10/25 12:17:23;;;;;;;1.55;1.40;;;;;;;21.66;49.16;101367.00;6233129;28;20232;-73
2022/10/25 12:20:49;;;;;;;5.03;2.25;;;;;;;22.13;48.42;101374.66;6220240;28;20233;-71
2022/10/25 12:24:19;;;;;;;1.42;1.33;;;;;;;20.11;53.24;101386.59;6229313;28;20247;-70
2022/10/25 12:27:42;;;;;;;3.97;1.20;;;;;;;18.95;57.25;101390.44;6232025;28;20227;-72
2022/10/25 12:31:15;;;;;;;4.35;2.42;;;;;;;18.64;58.84;101393.13;6236865;28;20228;-71
2022/10/25 12:34:41;;;;;;;1.75;1.23;;;;;;;17.84;61.16;101394.06;6233144;28;20255;-71
2022/10/25 12:38:10;;;;;;;4.40;2.53;;;;;;;18.39;60.19;101402.38;6233443;28;20224;-71
2022/10/25 12:41:36;;;;;;;3.03;2.00;;;;;;;18.69;58.20;101401.63;6227245;28;20224;-72
2022/10/25 12:45:17;;;;;;;3.72;2.22;;;;;;;18.70;59.36;101410.69;6240552;28;20225;-74
2022/10/25 12:49:02;;;;;;;1.60;1.20;;;;;;;18.27;59.66;101399.16;6234510;28;20224;-71
2022/10/25 12:52:29;;;;;;;3.47;1.67;;;;;;;18.71;58.27;101415.97;6236595;28;20236;-71
2022/10/25 12:56:01;;;;;;;10.10;1.75;;;;;;;18.59;59.02;101424.72;6231332;28;20216;-72
2022/10/25 12:59:40;;;;;;;3.65;1.85;;;;;;;17.81;60.65;101426.31;6228421;28;20232;-73
2022/10/25 13:03:34;;;;;;;2.60;1.75;;;;;;;17.78;61.03;101418.44;6232049;28;22532;-73
2022/10/25 13:06:58;;;;;;;2.75;1.25;;;;;;;18.64;57.14;101425.91;6232511;28;20547;-72
2022/10/25 13:10:22;;;;;;;2.47;1.27;;;;;;;19.08;55.60;101402.53;6233132;28;20254;-73
2022/10/25 13:13:51;;;;;;;1.60;1.02;;;;;;;18.77;56.59;101407.09;6241247;28;20232;-73
2022/10/25 13:18:00;;;;;;;3.70;1.75;;;;;;;18.38;57.83;101417.03;6227440;28;21845;-74
2022/10/25 13:22:06;;;;;;;1.17;0.80;;;;;;;17.50;61.04;101409.75;6223018;28;20308;-74
2022/10/25 13:26:00;;;;;;;2.63;1.52;;;;;;;17.40;62.43;101425.34;6235534;28;20247;-74
2022/10/25 13:29:48;;;;;;;4.63;1.23;;;;;;;17.17;62.63;101425.09;6235320;28;20228;-73
2022/10/25 13:33:32;;;;;;;1.23;0.80;;;;;;;17.14;65.00;101439.06;6231668;28;20701;-72
2022/10/25 13:36:54;;;;;;;2.55;2.33;;;;;;;17.00;63.87;101430.69;6231558;28;20375;-72
2022/10/25 13:40:26;;;;;;;4.53;1.20;;;;;;;17.16;63.52;101431.59;6235070;28;20240;-73
2022/10/25 13:43:59;;;;;;;2.17;1.17;;;;;;;17.12;63.60;101432.06;6233088;28;20885;-71
2022/10/25 13:47:38;;;;;;;1.42;1.27;;;;;;;17.16;63.57;101436.19;6231370;28;20228;-72
2022/10/25 13:51:02;;;;;;;2.33;1.50;;;;;;;16.97;64.17;101442.75;6232409;28;20697;-72
2022/10/25 13:54:24;;;;;;;3.50;2.00;;;;;;;17.47;63.55;101440.88;6232715;28;20236;-72
2022/10/25 13:57:47;;;;;;;8.05;1.60;;;;;;;17.46;63.27;101441.88;6231285;28;20232;-73
2022/10/25 14:01:58;;;;;;;1.58;1.25;;;;;;;18.26;62.01;101441.13;6234096;28;20603;-73
2022/10/25 14:06:07;;;;;;;2.72;1.30;;;;;;;17.31;64.04;101439.97;6226460;28;20237;-74
2022/10/25 14:09:38;;;;;;;2.35;1.35;;;;;;;17.13;65.07;101444.66;6235367;28;20232;-72
2022/10/25 14:13:21;;;;;;;2.38;1.30;;;;;;;16.77;65.66;101441.31;6234033;28;20731;-73
2022/10/25 14:16:53;;;;;;;2.58;1.40;;;;;;;16.66;66.56;101442.44;6231333;28;20225;-72
2022/10/25 14:20:25;;;;;;;4.45;1.50;;;;;;;16.78;66.47;101443.00;6239123;28;20232;-73
2022/10/25 14:23:50;;;;;;;8.57;2.60;;;;;;;16.86;66.39;101443.03;6226873;28;20531;-73
2022/10/25 14:27:27;;;;;;;4.87;1.40;;;;;;;16.79;66.67;101444.72;6223570;28;20229;-73
2022/10/25 14:30:50;;;;;;;4.40;2.17;;;;;;;16.74;67.13;101439.75;6227944;28;20240;-73
2022/10/25 14:34:19;;;;;;;2.42;2.22;;;;;;;16.64;67.38;101441.75;6233755;28;20264;-73
2022/10/25 14:37:42;;;;;;;3.38;1.63;;;;;;;16.59;68.40;101435.91;6219095;28;20237;-72
2022/10/25 14:41:12;;;;;;;2.17;1.93;;;;;;;16.43;68.66;101440.38;6225154;28;20228;-72
2022/10/25 14:44:44;;;;;;;3.60;2.27;;;;;;;16.36;69.31;101447.44;6236083;28;20610;-73
2022/10/25 14:48:09;;;;;;;7.60;1.77;;;;;;;16.38;68.80;101442.69;6219273;28;20251;-72
2022/10/25 14:51:34;;;;;;;3.20;2.20;;;;;;;16.35;68.77;101438.47;6227727;28;20312;-71
2022/10/25 14:54:59;;;;;;;2.50;2.30;;;;;;;16.27;69.21;101438.38;6225482;28;20236;-72
2022/10/25 14:58:23;;;;;;;6.87;1.93;;;;;;;16.42;69.04;101436.78;6222963;28;20626;-72
2022/10/25 15:01:51;;;;;;;3.50;2.30;;;;;;;16.24;70.04;101446.88;6225794;28;20228;-71
2022/10/25 15:05:17;;;;;;;3.27;2.97;;;;;;;16.14;70.48;101456.13;6225238;28;20330;-72
2022/10/25 15:08:39;;;;;;;5.57;2.33;;;;;;;16.06;71.11;101448.78;6217510;28;20224;-72
2022/10/25 15:12:18;;;;;;;6.27;2.17;;;;;;;16.01;71.09;101451.09;6221269;28;20226;-73
2022/10/25 15:15:43;;;;;;;2.10;1.53;;;;;;;15.94;71.18;101459.03;6224646;28;20244;-72
2022/10/25 15:19:06;;;;;;;4.03;1.83;;;;;;;15.99;71.96;101467.59;6218728;28;20323;-73
2022/10/25 15:22:29;;;;;;;3.13;2.73;;;;;;;15.69;72.79;101462.53;6215131;28;20228;-71
2022/10/25 15:25:50;;;;;;;2.87;1.83;;;;;;;15.44;74.19;101463.28;6215304;28;20315;-72
2022/10/25 15:29:11;;;;;;;3.93;2.00;;;;;;;15.47;73.91;101453.97;6213703;28;20244;-71
2022/10/25 15:32:35;;;;;;;3.40;2.80;;;;;;;15.50;74.08;101467.25;6206512;28;20568;-73
2022/10/25 15:35:59;;;;;;;4.30;1.83;;;;;;;15.43;74.07;101461.59;6206522;28;20320;-74
2022/10/25 15:39:26;;;;;;;4.97;2.03;;;;;;;15.46;74.01;101466.69;6198926;28;20612;-73
2022/10/25 15:42:47;;;;;;;3.97;2.30;;;;;;;15.44;74.00;101462.41;6196060;28;20257;-74
2022/10/25 15:46:20;;;;;;;2.43;1.67;;;;;;;15.45;74.31;101475.00;6208730;28;20233;-73
2022/10/25 15:49:42;;;;;;;4.93;3.20;;;;;;;15.38;74.45;101469.28;6213480;28;20225;-73
2022/10/25 15:53:03;;;;;;;4.63;1.63;;;;;;;15.40;74.39;101460.97;6206512;28;20328;-74
2022/10/25 15:56:24;;;;;;;1.40;1.30;;;;;;;15.50;74.46;101473.53;6207408;28;20618;-72